Time;durP1;ratioP1;P1;durP2;ratioP2;P2;SDS_P1;SDS_P2;PMS_P1;PMS_P2;Temp;Humidity;BMP_temperature;BMP_pressure;BME280_temperature;BME280_humidity;BME280_pressure;Samples;Min_cycle;Max_cycle;Signal;HPM_P1;HPM_P2
2021/12/04 00:00:48;;;;;;;1999.90;999.90;;;4.20;99.90;;;;;;5015257;28;20042;-63
2021/12/04 00:03:14;;;;;;;1999.90;999.90;;;4.20;99.90;;;;;;5014750;28;20061;-63
2021/12/04 00:05:46;;;;;;;1999.90;999.90;;;4.20;99.90;;;;;;5014102;28;20045;-63
2021/12/04 00:08:12;;;;;;;1999.90;999.90;;;4.20;99.90;;;;;;5014667;28;20550;-62
2021/12/04 00:10:38;;;;;;;1999.90;999.90;;;4.20;99.90;;;;;;5014412;28;20054;-62
2021/12/04 00:13:04;;;;;;;1999.90;999.90;;;4.20;99.90;;;;;;5014032;28;20128;-63
2021/12/04 00:15:29;;;;;;;1999.90;999.90;;;4.20;99.90;;;;;;5014817;28;20049;-63
2021/12/04 00:17:57;;;;;;;1999.90;999.90;;;4.20;99.90;;;;;;5014195;28;20046;-62
2021/12/04 00:20:27;;;;;;;1999.90;999.90;;;4.20;99.90;;;;;;5014041;28;20057;-62
2021/12/04 00:22:56;;;;;;;1999.90;999.90;;;4.20;99.90;;;;;;5014269;28;20050;-63
2021/12/04 00:25:22;;;;;;;1999.90;999.90;;;4.20;99.90;;;;;;5014202;28;20404;-62
2021/12/04 00:27:48;;;;;;;1999.90;999.90;;;4.20;99.90;;;;;;5013929;28;20050;-61
2021/12/04 00:30:13;;;;;;;1999.90;999.90;;;4.20;99.90;;;;;;5014532;28;20045;-63
2021/12/04 00:32:42;;;;;;;1999.90;999.90;;;4.20;99.90;;;;;;4996513;28;20085;-63
2021/12/04 00:35:22;;;;;;;1999.90;999.90;;;4.20;99.90;;;;;;4996118;28;20046;-63
2021/12/04 00:49:07;;;;;;;1999.90;999.90;;;4.20;99.90;;;;;;5013389;28;20130;-62
2021/12/04 00:51:11;;;;;;;1999.90;999.90;;;4.20;99.90;;;;;;5013720;28;20456;-63
2021/12/04 00:53:37;;;;;;;1999.90;999.90;;;4.20;99.90;;;;;;4995879;28;20054;-62
2021/12/04 00:56:03;;;;;;;1999.90;999.90;;;4.20;99.90;;;;;;5012919;28;20062;-62
2021/12/04 00:58:29;;;;;;;1999.90;999.90;;;4.20;99.90;;;;;;5007857;28;20132;-63
2021/12/04 01:00:56;;;;;;;1999.90;999.90;;;4.20;99.90;;;;;;4996022;28;20046;-62
2021/12/04 01:03:22;;;;;;;1999.90;999.90;;;4.20;99.90;;;;;;5013376;28;20057;-61
2021/12/04 01:05:47;;;;;;;1999.90;999.90;;;4.20;99.90;;;;;;4996362;28;20049;-62
2021/12/04 01:08:13;;;;;;;1999.90;999.90;;;4.20;99.90;;;;;;5012418;28;20145;-61
2021/12/04 01:10:39;;;;;;;1999.90;999.90;;;4.20;99.90;;;;;;4996211;28;20089;-61
2021/12/04 01:13:10;;;;;;;1999.90;999.90;;;4.20;99.90;;;;;;5013588;28;20444;-62
2021/12/04 01:15:38;;;;;;;1999.90;999.90;;;4.10;99.90;;;;;;5012512;28;20476;-61
2021/12/04 01:18:04;;;;;;;1999.90;999.90;;;4.10;99.90;;;;;;4993913;28;20046;-61
2021/12/04 01:20:30;;;;;;;1999.90;999.90;;;4.10;99.90;;;;;;4994211;28;20042;-62
2021/12/04 01:22:56;;;;;;;1999.90;999.90;;;4.10;99.90;;;;;;5006055;28;20053;-62
2021/12/04 01:25:21;;;;;;;1999.90;999.90;;;4.10;99.90;;;;;;5017084;28;20040;-62
2021/12/04 01:27:47;;;;;;;1999.90;999.90;;;4.10;99.90;;;;;;5033381;28;20138;-62
2021/12/04 01:30:13;;;;;;;1999.90;999.90;;;4.10;99.90;;;;;;5032477;28;20120;-62
2021/12/04 01:32:39;;;;;;;1999.90;999.90;;;4.10;99.90;;;;;;4998788;28;20120;-61
2021/12/04 01:35:06;;;;;;;1999.90;999.90;;;4.10;99.90;;;;;;5018351;28;20180;-62
2021/12/04 01:37:31;;;;;;;1999.90;999.90;;;4.10;99.90;;;;;;5012407;28;20057;-62
2021/12/04 01:39:57;;;;;;;1999.90;999.90;;;4.10;99.90;;;;;;5012819;28;20121;-61
2021/12/04 01:42:23;;;;;;;1999.90;999.90;;;4.10;99.90;;;;;;5012802;28;20085;-62
2021/12/04 01:44:50;;;;;;;1999.90;999.90;;;4.10;99.90;;;;;;5028478;28;20049;-61
2021/12/04 01:47:20;;;;;;;1999.90;999.90;;;4.10;99.90;;;;;;5032885;28;20137;-62
2021/12/04 01:49:49;;;;;;;1999.90;999.90;;;4.10;99.90;;;;;;5033152;28;20045;-63
2021/12/04 01:52:17;;;;;;;1999.90;999.90;;;4.10;99.90;;;;;;5021208;28;20049;-61
2021/12/04 01:54:44;;;;;;;1999.90;999.90;;;4.00;99.90;;;;;;5011453;28;20065;-61
2021/12/04 01:57:14;;;;;;;1999.90;999.90;;;4.00;99.90;;;;;;4995233;28;20492;-62
2021/12/04 01:59:41;;;;;;;1999.90;999.90;;;4.00;99.90;;;;;;5012378;28;20076;-62
2021/12/04 02:02:07;;;;;;;1999.90;999.90;;;4.10;99.90;;;;;;4995010;28;20092;-62
2021/12/04 02:04:33;;;;;;;1999.90;999.90;;;4.10;99.90;;;;;;5012422;28;20049;-61
2021/12/04 02:07:03;;;;;;;1999.90;999.90;;;4.00;99.90;;;;;;5012627;28;20389;-62
2021/12/04 02:09:32;;;;;;;1999.90;999.90;;;4.00;99.90;;;;;;5012335;28;20056;-61
2021/12/04 02:12:00;;;;;;;1999.90;999.90;;;4.00;99.90;;;;;;5012471;28;20423;-61
2021/12/04 02:14:25;;;;;;;1999.90;999.90;;;4.00;99.90;;;;;;5012926;28;20046;-61
2021/12/04 02:16:51;;;;;;;1999.90;999.90;;;3.90;99.90;;;;;;4994959;28;20199;-61
2021/12/04 02:19:18;;;;;;;1999.90;999.90;;;3.90;99.90;;;;;;5023034;28;20053;-61
2021/12/04 02:21:43;;;;;;;1999.90;999.90;;;4.00;99.90;;;;;;5029078;28;20082;-61
2021/12/04 02:24:09;;;;;;;1999.90;999.90;;;3.90;99.90;;;;;;5012771;28;20090;-61
2021/12/04 02:26:35;;;;;;;1999.90;999.90;;;3.90;99.90;;;;;;5011988;28;20053;-61
2021/12/04 02:29:01;;;;;;;1999.90;999.90;;;3.90;99.90;;;;;;5012765;28;20042;-61
2021/12/04 02:31:27;;;;;;;1999.90;999.90;;;3.90;99.90;;;;;;5012475;28;20056;-61
2021/12/04 02:33:53;;;;;;;1999.90;999.90;;;4.00;99.90;;;;;;5012155;28;20046;-61
2021/12/04 02:36:19;;;;;;;1999.90;999.90;;;4.00;99.90;;;;;;5012239;28;20142;-61
2021/12/04 02:38:50;;;;;;;1999.90;999.90;;;3.90;99.90;;;;;;5012268;28;20053;-61
2021/12/04 02:41:17;;;;;;;1999.90;999.90;;;4.00;99.90;;;;;;5012158;28;20065;-61
2021/12/04 02:43:43;;;;;;;1999.90;999.90;;;3.90;99.90;;;;;;5012749;28;20054;-60
2021/12/04 02:46:08;;;;;;;1999.90;999.90;;;3.90;99.90;;;;;;5011906;28;20451;-61
2021/12/04 02:48:34;;;;;;;1999.90;999.90;;;3.90;99.90;;;;;;4994309;28;20054;-61
2021/12/04 02:51:00;;;;;;;1999.90;999.90;;;3.90;99.90;;;;;;5012700;28;20030;-61
2021/12/04 02:53:26;;;;;;;1999.90;999.90;;;4.00;99.90;;;;;;5016078;28;20055;-61
2021/12/04 02:55:53;;;;;;;1999.90;999.90;;;3.90;99.90;;;;;;5030848;28;20080;-61
2021/12/04 02:58:20;;;;;;;1999.90;999.90;;;3.90;99.90;;;;;;5023367;28;20054;-61
2021/12/04 03:00:48;;;;;;;1999.90;999.90;;;3.90;99.90;;;;;;5011656;28;20050;-61
2021/12/04 03:03:17;;;;;;;1999.90;999.90;;;3.90;99.90;;;;;;5012339;28;20054;-61
2021/12/04 03:05:46;;;;;;;1999.90;999.90;;;3.90;99.90;;;;;;5012667;28;20056;-61
2021/12/04 03:08:12;;;;;;;1999.90;999.90;;;3.90;99.90;;;;;;5011524;28;20099;-61
2021/12/04 03:10:38;;;;;;;1999.90;999.90;;;3.90;99.90;;;;;;5012051;28;20050;-61
2021/12/04 03:13:07;;;;;;;1999.90;999.90;;;3.90;99.90;;;;;;5012577;28;20073;-61
2021/12/04 03:15:33;;;;;;;1999.90;999.90;;;3.90;99.90;;;;;;5010274;28;20096;-61
2021/12/04 03:17:59;;;;;;;1999.90;999.90;;;3.90;99.90;;;;;;5013712;28;20129;-63
2021/12/04 03:20:25;;;;;;;1999.90;999.90;;;3.90;99.90;;;;;;5015754;28;20074;-61
2021/12/04 03:22:58;;;;;;;1999.90;999.90;;;3.90;99.90;;;;;;5014830;28;20053;-61
2021/12/04 03:25:24;;;;;;;1999.90;999.90;;;4.00;99.90;;;;;;5016074;28;20046;-62
2021/12/04 03:27:51;;;;;;;1999.90;999.90;;;4.00;99.90;;;;;;5015753;28;20408;-61
2021/12/04 03:40:57;;;;;;;1999.90;999.90;;;4.00;99.90;;;;;;5015306;28;20526;-61
2021/12/04 03:43:23;;;;;;;1999.90;999.90;;;4.00;99.90;;;;;;4997529;28;20062;-61
2021/12/04 03:45:56;;;;;;;1999.90;999.90;;;4.00;99.90;;;;;;5015459;28;20057;-61
2021/12/04 03:51:02;;;;;;;1999.90;999.90;;;4.00;99.90;;;;;;5014175;28;20057;-61
2021/12/04 03:53:28;;;;;;;1999.90;999.90;;;3.90;99.90;;;;;;5015049;28;20129;-61
2021/12/04 03:55:54;;;;;;;1999.90;999.90;;;3.90;99.90;;;;;;5014715;28;20523;-61
2021/12/04 03:58:21;;;;;;;1999.90;999.90;;;3.90;99.90;;;;;;5013887;28;20049;-61
2021/12/04 04:00:47;;;;;;;1999.90;999.90;;;3.90;99.90;;;;;;5015190;28;20061;-61
2021/12/04 04:03:13;;;;;;;1999.90;999.90;;;3.90;99.90;;;;;;5015256;28;20054;-61
2021/12/04 04:05:39;;;;;;;1999.90;999.90;;;4.00;99.90;;;;;;5013817;28;20042;-61
2021/12/04 04:08:05;;;;;;;1999.90;999.90;;;3.90;99.90;;;;;;4996934;28;20488;-61
2021/12/04 04:10:31;;;;;;;1999.90;999.90;;;4.00;99.90;;;;;;5014872;28;20042;-61
2021/12/04 04:12:57;;;;;;;1999.90;999.90;;;4.00;99.90;;;;;;5014048;28;20050;-62
2021/12/04 04:15:23;;;;;;;1999.90;999.90;;;4.00;99.90;;;;;;5014772;28;20075;-62
2021/12/04 04:17:50;;;;;;;1999.90;999.90;;;4.00;99.90;;;;;;5014786;28;20057;-61
2021/12/04 04:20:19;;;;;;;1999.90;999.90;;;4.00;99.90;;;;;;5013961;28;20429;-62
2021/12/04 04:22:46;;;;;;;1999.90;999.90;;;4.00;99.90;;;;;;5014178;28;20522;-61
2021/12/04 04:25:15;;;;;;;1999.90;999.90;;;4.00;99.90;;;;;;5013951;28;20049;-62
2021/12/04 04:27:41;;;;;;;1999.90;999.90;;;4.00;99.90;;;;;;5014683;28;20092;-61
2021/12/04 04:30:13;;;;;;;1999.90;999.90;;;4.00;99.90;;;;;;5014216;28;20117;-61
2021/12/04 04:32:39;;;;;;;1999.90;999.90;;;4.00;99.90;;;;;;5014110;28;20107;-61
2021/12/04 04:35:09;;;;;;;1999.90;999.90;;;3.90;99.90;;;;;;5014278;28;20053;-61
2021/12/04 04:37:45;;;;;;;1999.90;999.90;;;3.90;99.90;;;;;;5013808;28;20555;-61
2021/12/04 04:57:23;;;;;;;1999.90;999.90;;;3.90;99.90;;;;;;5013527;28;20045;-61
2021/12/04 04:59:55;;;;;;;1999.90;999.90;;;3.90;99.90;;;;;;5013816;28;20472;-61
2021/12/04 05:10:51;;;;;;;1999.90;999.90;;;3.90;99.90;;;;;;5013609;28;20053;-61
2021/12/04 05:13:18;;;;;;;1999.90;999.90;;;3.80;99.90;;;;;;5013613;28;20050;-61
2021/12/04 05:15:57;;;;;;;1999.90;999.90;;;3.80;99.90;;;;;;5013036;28;20277;-61
2021/12/04 05:18:34;;;;;;;1999.90;999.90;;;3.80;99.90;;;;;;5013569;28;20092;-60
2021/12/04 05:21:04;;;;;;;1999.90;999.90;;;3.80;99.90;;;;;;5013488;28;20042;-61
2021/12/04 05:23:35;;;;;;;1999.90;999.90;;;3.90;99.90;;;;;;5012701;28;20041;-60
2021/12/04 05:26:03;;;;;;;1999.90;999.90;;;3.80;99.90;;;;;;5013861;28;20042;-61
2021/12/04 05:28:29;;;;;;;1999.90;999.90;;;3.80;99.90;;;;;;5012445;28;20049;-61
2021/12/04 05:30:56;;;;;;;1999.90;999.90;;;3.70;99.90;;;;;;5013782;28;20176;-60
2021/12/04 05:33:23;;;;;;;1999.90;999.90;;;3.70;99.90;;;;;;4995480;28;20073;-61
2021/12/04 05:35:49;;;;;;;1999.90;999.90;;;3.70;99.90;;;;;;5012601;28;20050;-61
2021/12/04 05:38:15;;;;;;;1999.90;999.90;;;3.80;99.90;;;;;;5013263;28;20060;-61
2021/12/04 05:40:42;;;;;;;1999.90;999.90;;;3.80;99.90;;;;;;5013109;28;20056;-61
2021/12/04 05:43:08;;;;;;;1999.90;999.90;;;3.80;99.90;;;;;;5012198;28;20038;-61
2021/12/04 05:45:39;;;;;;;1999.90;999.90;;;3.80;99.90;;;;;;5013263;28;20058;-61
2021/12/04 05:48:12;;;;;;;1999.90;999.90;;;3.80;99.90;;;;;;5012932;28;20046;-61
2021/12/04 05:50:58;;;;;;;1999.90;999.90;;;3.70;99.90;;;;;;5012124;28;20511;-61
2021/12/04 05:53:27;;;;;;;1999.90;999.90;;;3.80;99.90;;;;;;5013389;28;20495;-61
2021/12/04 05:55:54;;;;;;;1999.90;999.90;;;3.80;99.90;;;;;;5008073;28;20104;-60
2021/12/04 05:58:22;;;;;;;1999.90;999.90;;;3.80;99.90;;;;;;4983090;28;20050;-61
2021/12/04 06:00:49;;;;;;;1999.90;999.90;;;3.80;99.90;;;;;;4990670;28;20144;-61
2021/12/04 06:03:15;;;;;;;1999.90;999.90;;;3.70;99.90;;;;;;4993351;28;20058;-61
2021/12/04 06:05:41;;;;;;;1999.90;999.90;;;3.80;99.90;;;;;;4992512;28;20057;-61
2021/12/04 06:08:07;;;;;;;1999.90;999.90;;;3.80;99.90;;;;;;4980151;28;20046;-61
2021/12/04 06:10:32;;;;;;;1999.90;999.90;;;3.80;99.90;;;;;;4992973;28;20054;-61
2021/12/04 06:12:58;;;;;;;1999.90;999.90;;;3.80;99.90;;;;;;4975386;28;20050;-60
2021/12/04 06:15:24;;;;;;;1999.90;999.90;;;3.80;99.90;;;;;;4993190;28;20065;-61
2021/12/04 06:17:53;;;;;;;1999.90;999.90;;;3.80;99.90;;;;;;4991725;28;20404;-61
2021/12/04 06:23:03;;;;;;;1999.90;999.90;;;3.90;99.90;;;;;;4979299;28;20054;-61
2021/12/04 06:25:28;;;;;;;1999.90;999.90;;;3.90;99.90;;;;;;4974349;28;20118;-61
2021/12/04 06:27:56;;;;;;;1999.90;999.90;;;3.90;99.90;;;;;;4992974;28;20062;-61
2021/12/04 06:30:24;;;;;;;1999.90;999.90;;;3.90;99.90;;;;;;4993278;28;20378;-61
2021/12/04 06:32:51;;;;;;;1999.90;999.90;;;3.90;99.90;;;;;;4992402;28;20073;-61
2021/12/04 06:35:19;;;;;;;1999.90;999.90;;;3.90;99.90;;;;;;4992164;28;20402;-61
2021/12/04 06:37:46;;;;;;;1999.90;999.90;;;3.90;99.90;;;;;;4992778;28;20098;-61
2021/12/04 06:40:12;;;;;;;1999.90;999.90;;;3.90;99.90;;;;;;4992149;28;20050;-61
2021/12/04 06:42:40;;;;;;;1999.90;999.90;;;3.90;99.90;;;;;;4992774;28;20109;-61
2021/12/04 06:45:06;;;;;;;1999.90;999.90;;;3.90;99.90;;;;;;4992748;28;20086;-61
2021/12/04 06:47:33;;;;;;;1999.90;999.90;;;3.90;99.90;;;;;;4992185;28;20541;-61
2021/12/04 06:50:11;;;;;;;1999.90;999.90;;;3.80;99.90;;;;;;4992795;28;20432;-61
2021/12/04 06:52:39;;;;;;;1999.90;999.90;;;3.80;99.90;;;;;;4993774;28;20054;-61
2021/12/04 06:55:05;;;;;;;1999.90;999.90;;;3.80;99.90;;;;;;4996239;28;20054;-61
2021/12/04 06:57:37;;;;;;;1999.90;999.90;;;3.80;99.90;;;;;;5011758;28;20072;-61
2021/12/04 07:00:06;;;;;;;1999.90;999.90;;;3.80;99.90;;;;;;4995801;28;20061;-61
2021/12/04 07:02:32;;;;;;;1999.90;999.90;;;3.80;99.90;;;;;;4996372;28;20038;-61
2021/12/04 07:04:58;;;;;;;1999.90;999.90;;;3.70;99.90;;;;;;4996043;28;20456;-61
2021/12/04 07:07:23;;;;;;;1999.90;999.90;;;3.70;99.90;;;;;;4995564;28;20057;-61
2021/12/04 07:09:49;;;;;;;1999.90;999.90;;;3.80;99.90;;;;;;4978616;28;20054;-61
2021/12/04 07:12:15;;;;;;;1999.90;999.90;;;3.80;99.90;;;;;;4996316;28;20054;-61
2021/12/04 07:14:41;;;;;;;1999.90;999.90;;;3.90;99.90;;;;;;4995770;28;20047;-61
2021/12/04 07:17:09;;;;;;;1999.90;999.90;;;3.90;99.90;;;;;;4996382;28;20049;-61
2021/12/04 07:19:35;;;;;;;1999.90;999.90;;;3.90;99.90;;;;;;4995484;28;20500;-61
2021/12/04 07:22:02;;;;;;;1999.90;999.90;;;3.90;99.90;;;;;;4995659;28;20042;-61
2021/12/04 07:24:31;;;;;;;1999.90;999.90;;;3.90;99.90;;;;;;4996371;28;20113;-61
2021/12/04 07:26:57;;;;;;;1999.90;999.90;;;3.90;99.90;;;;;;4995768;28;20050;-61
2021/12/04 07:29:23;;;;;;;1999.90;999.90;;;4.00;99.90;;;;;;5012462;28;20518;-61
2021/12/04 07:31:49;;;;;;;1999.90;999.90;;;4.00;99.90;;;;;;5015915;28;20049;-61
2021/12/04 07:34:15;;;;;;;1999.90;999.90;;;4.00;99.90;;;;;;5015191;28;20045;-61
2021/12/04 07:36:41;;;;;;;1999.90;999.90;;;3.90;99.90;;;;;;5009461;28;20058;-61
2021/12/04 07:39:06;;;;;;;1999.90;999.90;;;3.90;99.90;;;;;;4995752;28;20065;-61
2021/12/04 07:41:38;;;;;;;1999.90;999.90;;;3.90;99.90;;;;;;4995711;28;20058;-62
2021/12/04 07:44:08;;;;;;;1999.90;999.90;;;4.00;99.90;;;;;;4995231;28;20043;-62
2021/12/04 07:46:34;;;;;;;1999.90;999.90;;;3.90;99.90;;;;;;5008445;28;20404;-62
2021/12/04 07:49:00;;;;;;;1999.90;999.90;;;3.90;99.90;;;;;;5014668;28;20099;-61
2021/12/04 07:51:25;;;;;;;1999.90;999.90;;;4.00;99.90;;;;;;4987643;28;20459;-62
2021/12/04 07:53:51;;;;;;;1999.90;999.90;;;3.90;99.90;;;;;;4998227;28;20065;-62
2021/12/04 07:56:17;;;;;;;1999.90;999.90;;;4.00;99.90;;;;;;4994573;28;20093;-62
2021/12/04 07:58:43;;;;;;;1999.90;999.90;;;4.00;99.90;;;;;;4995365;28;20061;-62
2021/12/04 08:01:10;;;;;;;1999.90;999.90;;;3.90;99.90;;;;;;4978065;28;20046;-62
2021/12/04 08:03:36;;;;;;;1999.90;999.90;;;4.00;99.90;;;;;;4993766;28;20054;-62
2021/12/04 08:06:03;;;;;;;1999.90;999.90;;;4.00;99.90;;;;;;4998249;28;20428;-62
2021/12/04 08:08:29;;;;;;;1999.90;999.90;;;4.00;99.90;;;;;;5005028;28;20556;-62
2021/12/04 08:10:55;;;;;;;1999.90;999.90;;;3.90;99.90;;;;;;4986544;28;20125;-61
2021/12/04 08:13:21;;;;;;;1999.90;999.90;;;3.90;99.90;;;;;;5001352;28;20085;-61
2021/12/04 08:15:47;;;;;;;1999.90;999.90;;;3.90;99.90;;;;;;5011691;28;20081;-61
2021/12/04 08:18:13;;;;;;;1999.90;999.90;;;3.90;99.90;;;;;;4995993;28;20097;-62
2021/12/04 08:20:39;;;;;;;1999.90;999.90;;;4.00;99.90;;;;;;5011775;28;20046;-62
2021/12/04 08:23:05;;;;;;;1999.90;999.90;;;3.90;99.90;;;;;;4994975;28;20054;-62
2021/12/04 08:25:32;;;;;;;1999.90;999.90;;;4.00;99.90;;;;;;5000829;28;20054;-62
2021/12/04 08:27:58;;;;;;;1999.90;999.90;;;4.10;99.90;;;;;;5003349;28;20042;-62
2021/12/04 08:30:27;;;;;;;1999.90;999.90;;;4.00;99.90;;;;;;5001344;28;20054;-62
2021/12/04 08:32:56;;;;;;;1999.90;999.90;;;4.00;99.90;;;;;;4994028;28;20050;-62
2021/12/04 08:35:25;;;;;;;1999.90;999.90;;;4.00;99.90;;;;;;4994936;28;20046;-62
2021/12/04 08:37:52;;;;;;;1999.90;999.90;;;4.00;99.90;;;;;;4994319;28;20050;-62
2021/12/04 08:40:18;;;;;;;1999.90;999.90;;;4.00;99.90;;;;;;4999400;28;20055;-62
2021/12/04 08:42:46;;;;;;;1999.90;999.90;;;4.10;99.90;;;;;;5009200;28;20057;-62
2021/12/04 08:45:13;;;;;;;1999.90;999.90;;;4.10;99.90;;;;;;5003211;28;20049;-62
2021/12/04 08:47:40;;;;;;;1999.90;999.90;;;4.00;99.90;;;;;;4991945;28;20778;-62
2021/12/04 08:50:09;;;;;;;1999.90;999.90;;;4.00;99.90;;;;;;4994508;28;20074;-62
2021/12/04 08:52:36;;;;;;;1999.90;999.90;;;4.10;99.90;;;;;;4997181;28;20447;-62
2021/12/04 08:55:03;;;;;;;1999.90;999.90;;;4.10;99.90;;;;;;5000139;28;20173;-62
2021/12/04 08:57:29;;;;;;;1999.90;999.90;;;4.10;99.90;;;;;;5001958;28;20092;-62
2021/12/04 08:59:54;;;;;;;1999.90;999.90;;;4.10;99.90;;;;;;4999821;28;20086;-62
2021/12/04 09:02:21;;;;;;;1999.90;999.90;;;4.10;99.90;;;;;;5002004;28;20037;-62
2021/12/04 09:04:47;;;;;;;1999.90;999.90;;;4.10;99.90;;;;;;5001808;28;20125;-63
2021/12/04 09:07:14;;;;;;;1999.90;999.90;;;4.10;99.90;;;;;;5006375;28;20089;-62
2021/12/04 09:09:40;;;;;;;1999.90;999.90;;;4.10;99.90;;;;;;5007153;28;20038;-62
2021/12/04 09:12:08;;;;;;;1999.90;999.90;;;4.10;99.90;;;;;;4996937;28;20400;-62
2021/12/04 09:14:36;;;;;;;1999.90;999.90;;;4.10;99.90;;;;;;4992677;28;20046;-62
2021/12/04 09:17:06;;;;;;;1999.90;999.90;;;4.10;99.90;;;;;;4993536;28;20058;-62
2021/12/04 09:19:32;;;;;;;1999.90;999.90;;;4.10;99.90;;;;;;5001966;28;20507;-62
2021/12/04 09:21:59;;;;;;;1999.90;999.90;;;4.10;99.90;;;;;;5003566;28;20042;-62
2021/12/04 09:24:28;;;;;;;1999.90;999.90;;;4.20;99.90;;;;;;4997869;28;20049;-62
2021/12/04 09:27:17;;;;;;;1999.90;999.90;;;4.20;99.90;;;;;;4998567;28;20046;-62
2021/12/04 09:59:35;;;;;;;1999.90;999.90;;;4.40;99.90;;;;;;4996881;28;20046;-62
2021/12/04 10:02:16;;;;;;;1999.90;999.90;;;4.50;99.90;;;;;;4992746;28;20046;-63
2021/12/04 10:23:33;;;;;;;1999.90;999.90;;;4.50;99.90;;;;;;4992915;28;20118;-62
2021/12/04 10:33:58;;;;;;;1999.90;999.90;;;4.40;99.90;;;;;;4997024;28;20042;-63
2021/12/04 10:36:28;;;;;;;1999.90;999.90;;;4.50;99.90;;;;;;4996953;28;20061;-62
2021/12/04 10:38:55;;;;;;;1999.90;999.90;;;4.50;99.90;;;;;;4995694;28;20050;-63
2021/12/04 10:41:30;;;;;;;1999.90;999.90;;;4.60;99.90;;;;;;4996891;28;20452;-62
2021/12/04 10:44:23;;;;;;;1999.90;999.90;;;4.60;99.90;;;;;;4996577;28;20050;-62
2021/12/04 10:46:59;;;;;;;1999.90;999.90;;;4.60;99.90;;;;;;4995863;28;20050;-62
2021/12/04 10:49:49;;;;;;;1999.90;999.90;;;4.70;99.90;;;;;;4996873;28;20045;-62
2021/12/04 10:52:34;;;;;;;1999.90;999.90;;;4.70;99.90;;;;;;4995822;28;20481;-62
2021/12/04 11:03:05;;;;;;;1999.90;999.90;;;4.90;99.90;;;;;;4996865;28;20416;-62
2021/12/04 11:19:13;;;;;;;1999.90;999.90;;;4.80;99.90;;;;;;4978436;28;20539;-63
2021/12/04 11:21:59;;;;;;;1999.90;999.90;;;4.80;99.90;;;;;;4995577;28;20120;-63
2021/12/04 11:25:13;;;;;;;1999.90;999.90;;;4.90;99.90;;;;;;4995938;28;20050;-62
2021/12/04 11:27:47;;;;;;;1999.90;999.90;;;4.80;99.90;;;;;;4995054;28;20373;-62
2021/12/04 11:41:33;;;;;;;1999.90;999.90;;;4.70;99.90;;;;;;4995039;28;20153;-62
2021/12/04 11:46:41;;;;;;;1999.90;999.90;;;4.70;99.90;;;;;;5004751;28;20061;-62
2021/12/04 11:49:11;;;;;;;1999.90;999.90;;;4.70;99.90;;;;;;4985875;28;20081;-62
2021/12/04 11:51:46;;;;;;;1999.90;999.90;;;4.60;99.90;;;;;;5015174;28;20121;-62
2021/12/04 11:54:12;;;;;;;1999.90;999.90;;;4.60;99.90;;;;;;5002373;28;20042;-62
2021/12/04 11:56:39;;;;;;;1999.90;999.90;;;4.70;99.90;;;;;;5000265;28;20050;-62
2021/12/04 11:59:05;;;;;;;1999.90;999.90;;;4.70;99.90;;;;;;5000875;28;20064;-62
2021/12/04 12:01:35;;;;;;;1999.90;999.90;;;4.80;99.90;;;;;;4997704;28;20038;-62
2021/12/04 12:04:07;;;;;;;1999.90;999.90;;;4.80;99.90;;;;;;4991621;28;20448;-62
2021/12/04 12:06:35;;;;;;;1999.90;999.90;;;4.90;99.90;;;;;;4995354;28;20046;-61
2021/12/04 12:09:10;;;;;;;1999.90;999.90;;;4.90;99.90;;;;;;4994725;28;20393;-62
2021/12/04 12:11:36;;;;;;;1999.90;999.90;;;4.90;99.90;;;;;;4994093;28;20488;-62
2021/12/04 12:14:07;;;;;;;1999.90;999.90;;;4.90;99.90;;;;;;4995117;28;20734;-62
2021/12/04 12:16:39;;;;;;;1999.90;999.90;;;4.90;99.90;;;;;;5008020;28;20062;-62
2021/12/04 12:19:13;;;;;;;1999.90;999.90;;;4.90;99.90;;;;;;5033725;28;20447;-62
2021/12/04 12:21:53;;;;;;;1999.90;999.90;;;4.90;99.90;;;;;;4996221;28;20053;-62
2021/12/04 12:32:49;;;;;;;1999.90;999.90;;;4.90;99.90;;;;;;5013953;28;20416;-62
2021/12/04 12:38:10;;;;;;;1999.90;999.90;;;4.90;99.90;;;;;;5022156;28;20103;-62
2021/12/04 12:40:37;;;;;;;1999.90;999.90;;;4.90;99.90;;;;;;5033993;28;20049;-62
2021/12/04 12:43:16;;;;;;;1999.90;999.90;;;4.90;99.90;;;;;;5027859;28;20121;-62
2021/12/04 12:45:53;;;;;;;1999.90;999.90;;;4.90;99.90;;;;;;5022353;28;20045;-62
2021/12/04 12:48:19;;;;;;;1999.90;999.90;;;5.00;99.90;;;;;;5005726;28;20544;-63
2021/12/04 12:50:47;;;;;;;1999.90;999.90;;;5.00;99.90;;;;;;5021992;28;20133;-62
2021/12/04 12:53:15;;;;;;;1999.90;999.90;;;5.10;99.90;;;;;;5023280;28;20041;-62
2021/12/04 12:55:43;;;;;;;1999.90;999.90;;;5.10;99.90;;;;;;5015055;28;20400;-62
2021/12/04 12:58:20;;;;;;;1999.90;999.90;;;5.20;99.90;;;;;;4996046;28;20058;-62
2021/12/04 13:12:01;;;;;;;1999.90;999.90;;;5.10;99.90;;;;;;5013921;28;20052;-62
2021/12/04 13:14:36;;;;;;;1999.90;999.90;;;5.10;99.90;;;;;;5012695;28;20173;-62
2021/12/04 13:17:10;;;;;;;1999.90;999.90;;;5.00;99.90;;;;;;5013731;28;20045;-62
2021/12/04 13:19:45;;;;;;;1999.90;999.90;;;5.00;99.90;;;;;;5012850;28;20050;-63
2021/12/04 13:22:17;;;;;;;1999.90;999.90;;;5.00;99.90;;;;;;5013114;28;20041;-63
2021/12/04 13:24:45;;;;;;;1999.90;999.90;;;5.00;99.90;;;;;;4998578;28;20584;-63
2021/12/04 13:29:49;;;;;;;1999.90;999.90;;;4.90;99.90;;;;;;5019687;28;20080;-63
2021/12/04 13:32:18;;;;;;;1999.90;999.90;;;5.00;99.90;;;;;;5026499;28;20046;-62
2021/12/04 13:34:45;;;;;;;1999.90;999.90;;;4.90;99.90;;;;;;5025409;28;20085;-63
2021/12/04 13:37:12;;;;;;;1999.90;999.90;;;4.90;99.90;;;;;;5019502;28;20080;-63
2021/12/04 13:39:43;;;;;;;1999.90;999.90;;;4.90;99.90;;;;;;5012907;28;20042;-63
2021/12/04 13:42:09;;;;;;;1999.90;999.90;;;4.90;99.90;;;;;;5012723;28;20075;-63
2021/12/04 13:44:36;;;;;;;1999.90;999.90;;;4.90;99.90;;;;;;5013216;28;20038;-63
2021/12/04 13:47:05;;;;;;;1999.90;999.90;;;4.90;99.90;;;;;;5013378;28;20045;-63
2021/12/04 13:50:08;;;;;;;1999.90;999.90;;;4.90;99.90;;;;;;5017210;28;20519;-63
2021/12/04 13:52:32;;;;;;;1999.90;999.90;;;4.90;99.90;;;;;;5014352;28;20113;-63
2021/12/04 13:55:05;;;;;;;1999.90;999.90;;;4.90;99.90;;;;;;5028932;28;20100;-63
2021/12/04 13:57:31;;;;;;;1999.90;999.90;;;4.90;99.90;;;;;;5020885;28;20062;-63
2021/12/04 13:59:59;;;;;;;1999.90;999.90;;;4.90;99.90;;;;;;5012179;28;20060;-62
2021/12/04 14:02:28;;;;;;;1999.90;999.90;;;4.90;99.90;;;;;;5012016;28;20046;-62
2021/12/04 14:05:05;;;;;;;1999.90;999.90;;;4.90;99.90;;;;;;5013103;28;20046;-63
2021/12/04 14:07:31;;;;;;;1999.90;999.90;;;4.90;99.90;;;;;;5012583;28;20365;-63
2021/12/04 14:09:57;;;;;;;1999.90;999.90;;;4.90;99.90;;;;;;5011660;28;20045;-64
2021/12/04 14:12:23;;;;;;;1999.90;999.90;;;4.80;99.90;;;;;;5012861;28;20136;-62
2021/12/04 14:14:49;;;;;;;1999.90;999.90;;;4.80;99.90;;;;;;5012366;28;20042;-62
2021/12/04 14:17:17;;;;;;;1999.90;999.90;;;4.80;99.90;;;;;;5011972;28;20577;-63
2021/12/04 14:19:45;;;;;;;1999.90;999.90;;;4.90;99.90;;;;;;5012228;28;20049;-63
2021/12/04 14:22:16;;;;;;;1999.90;999.90;;;4.80;99.90;;;;;;5012390;28;20046;-63
2021/12/04 14:24:54;;;;;;;1999.90;999.90;;;4.70;99.90;;;;;;5011381;28;20465;-62
2021/12/04 14:27:26;;;;;;;1999.90;999.90;;;4.80;99.90;;;;;;5011862;28;20085;-63
2021/12/04 14:29:56;;;;;;;1999.90;999.90;;;4.70;99.90;;;;;;5012754;28;20197;-62
2021/12/04 14:32:25;;;;;;;1999.90;999.90;;;4.70;99.90;;;;;;5012448;28;20108;-63
2021/12/04 14:34:56;;;;;;;1999.90;999.90;;;4.70;99.90;;;;;;5012136;28;20050;-62
2021/12/04 14:37:23;;;;;;;1999.90;999.90;;;4.70;99.90;;;;;;5011364;28;20038;-63
2021/12/04 14:39:50;;;;;;;1999.90;999.90;;;4.80;99.90;;;;;;5000403;28;20092;-62
2021/12/04 14:42:19;;;;;;;1999.90;999.90;;;4.70;99.90;;;;;;5011996;28;20045;-62
2021/12/04 14:44:51;;;;;;;1999.90;999.90;;;4.70;99.90;;;;;;5012632;28;20045;-62
2021/12/04 14:47:19;;;;;;;1999.90;999.90;;;4.80;99.90;;;;;;5018013;28;20412;-62
2021/12/04 14:49:46;;;;;;;1999.90;999.90;;;4.80;99.90;;;;;;5021134;28;20042;-63
2021/12/04 14:52:18;;;;;;;1999.90;999.90;;;4.80;99.90;;;;;;5009087;28;20056;-62
2021/12/04 14:54:44;;;;;;;;;;;4.80;99.90;;;;;;5023575;28;20077;-62
2021/12/04 14:57:14;;;;;;;1999.90;999.90;;;4.80;99.90;;;;;;5013603;28;19972;-63
2021/12/04 14:59:40;;;;;;;1999.90;999.90;;;4.80;99.90;;;;;;5017083;28;20160;-62
2021/12/04 15:02:15;;;;;;;1999.90;999.90;;;4.90;99.90;;;;;;5020060;28;20129;-62
2021/12/04 15:04:41;;;;;;;1999.90;999.90;;;4.90;99.90;;;;;;5013203;28;20116;-63